sensor_id;sensor_type;location;lat;lon;timestamp;P1;durP1;ratioP1;P2;durP2;ratioP2
3405;SDS011;10008;48.682;9.016;2024-03-23T00:52:51;13.63;;;12.53;;
3405;SDS011;10008;48.682;9.016;2024-03-23T00:55:17;14.30;;;13.00;;
3405;SDS011;10008;48.682;9.016;2024-03-23T00:57:42;13.00;;;11.90;;
3405;SDS011;10008;48.682;9.016;2024-03-23T01:00:08;12.33;;;11.30;;
3405;SDS011;10008;48.682;9.016;2024-03-23T01:02:35;13.23;;;11.93;;
3405;SDS011;10008;48.682;9.016;2024-03-23T01:05:01;13.20;;;12.10;;
3405;SDS011;10008;48.682;9.016;2024-03-23T01:07:27;14.00;;;12.70;;
3405;SDS011;10008;48.682;9.016;2024-03-23T01:09:53;14.70;;;13.20;;
3405;SDS011;10008;48.682;9.016;2024-03-23T01:12:18;14.83;;;13.43;;
3405;SDS011;10008;48.682;9.016;2024-03-23T01:14:44;15.83;;;14.20;;
3405;SDS011;10008;48.682;9.016;2024-03-23T01:17:10;15.57;;;14.07;;
3405;SDS011;10008;48.682;9.016;2024-03-23T01:19:35;16.00;;;14.50;;
3405;SDS011;10008;48.682;9.016;2024-03-23T01:22:01;15.87;;;14.37;;
3405;SDS011;10008;48.682;9.016;2024-03-23T01:24:27;16.40;;;14.70;;
3405;SDS011;10008;48.682;9.016;2024-03-23T01:26:53;16.57;;;15.07;;
3405;SDS011;10008;48.682;9.016;2024-03-23T01:29:19;16.63;;;15.00;;
3405;SDS011;10008;48.682;9.016;2024-03-23T01:31:44;17.00;;;15.47;;
3405;SDS011;10008;48.682;9.016;2024-03-23T01:34:10;16.40;;;14.70;;
3405;SDS011;10008;48.682;9.016;2024-03-23T01:36:36;16.47;;;14.60;;
3405;SDS011;10008;48.682;9.016;2024-03-23T01:39:02;15.80;;;14.30;;
3405;SDS011;10008;48.682;9.016;2024-03-23T01:41:28;14.90;;;13.50;;
3405;SDS011;10008;48.682;9.016;2024-03-23T01:43:54;16.10;;;14.63;;
3405;SDS011;10008;48.682;9.016;2024-03-23T01:46:20;16.53;;;15.10;;
3405;SDS011;10008;48.682;9.016;2024-03-23T01:48:46;17.97;;;16.13;;
3405;SDS011;10008;48.682;9.016;2024-03-23T01:51:12;16.53;;;14.80;;
3405;SDS011;10008;48.682;9.016;2024-03-23T01:53:39;16.73;;;14.70;;
3405;SDS011;10008;48.682;9.016;2024-03-23T01:56:05;15.83;;;14.43;;
3405;SDS011;10008;48.682;9.016;2024-03-23T01:58:31;13.40;;;12.30;;
3405;SDS011;10008;48.682;9.016;2024-03-23T02:00:59;14.30;;;12.90;;
3405;SDS011;10008;48.682;9.016;2024-03-23T02:03:25;13.20;;;11.90;;
3405;SDS011;10008;48.682;9.016;2024-03-23T02:05:54;13.50;;;12.20;;
3405;SDS011;10008;48.682;9.016;2024-03-23T02:08:22;12.50;;;11.50;;
3405;SDS011;10008;48.682;9.016;2024-03-23T02:10:51;13.20;;;12.07;;
3405;SDS011;10008;48.682;9.016;2024-03-23T02:13:17;12.53;;;11.43;;
3405;SDS011;10008;48.682;9.016;2024-03-23T02:15:44;12.03;;;10.93;;
3405;SDS011;10008;48.682;9.016;2024-03-23T02:18:10;12.60;;;11.60;;
3405;SDS011;10008;48.682;9.016;2024-03-23T02:20:36;12.57;;;11.47;;
3405;SDS011;10008;48.682;9.016;2024-03-23T02:23:02;12.60;;;11.57;;
3405;SDS011;10008;48.682;9.016;2024-03-23T02:25:31;12.87;;;11.77;;
3405;SDS011;10008;48.682;9.016;2024-03-23T02:27:58;13.30;;;12.10;;
3405;SDS011;10008;48.682;9.016;2024-03-23T02:30:25;12.70;;;11.70;;
3405;SDS011;10008;48.682;9.016;2024-03-23T02:32:51;12.60;;;11.60;;
3405;SDS011;10008;48.682;9.016;2024-03-23T02:35:17;12.70;;;11.70;;
3405;SDS011;10008;48.682;9.016;2024-03-23T02:37:43;12.60;;;11.47;;
3405;SDS011;10008;48.682;9.016;2024-03-23T02:40:08;13.27;;;11.97;;
3405;SDS011;10008;48.682;9.016;2024-03-23T02:42:34;12.67;;;11.63;;
3405;SDS011;10008;48.682;9.016;2024-03-23T02:45:00;11.70;;;10.70;;
3405;SDS011;10008;48.682;9.016;2024-03-23T02:47:25;12.13;;;11.03;;
3405;SDS011;10008;48.682;9.016;2024-03-23T02:49:51;12.67;;;11.50;;
3405;SDS011;10008;48.682;9.016;2024-03-23T02:52:17;12.07;;;11.07;;
3405;SDS011;10008;48.682;9.016;2024-03-23T02:54:43;12.53;;;11.53;;
3405;SDS011;10008;48.682;9.016;2024-03-23T02:57:10;12.17;;;11.23;;
3405;SDS011;10008;48.682;9.016;2024-03-23T02:59:36;12.90;;;11.70;;
3405;SDS011;10008;48.682;9.016;2024-03-23T03:02:02;12.33;;;11.33;;
3405;SDS011;10008;48.682;9.016;2024-03-23T03:04:29;12.90;;;11.90;;
3405;SDS011;10008;48.682;9.016;2024-03-23T03:06:55;12.80;;;11.70;;
3405;SDS011;10008;48.682;9.016;2024-03-23T03:09:21;12.80;;;11.60;;
3405;SDS011;10008;48.682;9.016;2024-03-23T03:11:47;12.60;;;11.50;;
3405;SDS011;10008;48.682;9.016;2024-03-23T03:14:13;13.33;;;12.00;;
3405;SDS011;10008;48.682;9.016;2024-03-23T03:16:38;13.00;;;11.90;;
3405;SDS011;10008;48.682;9.016;2024-03-23T03:19:04;11.90;;;10.90;;
3405;SDS011;10008;48.682;9.016;2024-03-23T03:21:31;13.10;;;11.80;;
3405;SDS011;10008;48.682;9.016;2024-03-23T03:23:57;13.40;;;12.10;;
3405;SDS011;10008;48.682;9.016;2024-03-23T03:26:23;13.30;;;12.20;;
3405;SDS011;10008;48.682;9.016;2024-03-23T03:28:50;12.37;;;11.07;;
3405;SDS011;10008;48.682;9.016;2024-03-23T03:31:16;13.80;;;12.40;;
3405;SDS011;10008;48.682;9.016;2024-03-23T03:33:42;12.73;;;11.73;;
3405;SDS011;10008;48.682;9.016;2024-03-23T03:36:08;12.70;;;11.70;;
3405;SDS011;10008;48.682;9.016;2024-03-23T03:38:34;12.50;;;11.40;;
3405;SDS011;10008;48.682;9.016;2024-03-23T03:41:03;11.87;;;10.83;;
3405;SDS011;10008;48.682;9.016;2024-03-23T03:43:31;12.50;;;11.57;;
3405;SDS011;10008;48.682;9.016;2024-03-23T03:45:57;12.43;;;11.43;;
3405;SDS011;10008;48.682;9.016;2024-03-23T03:48:23;13.47;;;12.27;;
3405;SDS011;10008;48.682;9.016;2024-03-23T03:50:49;12.87;;;11.67;;
3405;SDS011;10008;48.682;9.016;2024-03-23T03:53:15;12.73;;;11.73;;
3405;SDS011;10008;48.682;9.016;2024-03-23T03:55:41;12.43;;;11.43;;
3405;SDS011;10008;48.682;9.016;2024-03-23T03:58:07;14.97;;;12.53;;
3405;SDS011;10008;48.682;9.016;2024-03-23T04:00:32;13.33;;;12.33;;
3405;SDS011;10008;48.682;9.016;2024-03-23T04:02:58;12.57;;;11.37;;
3405;SDS011;10008;48.682;9.016;2024-03-23T04:05:24;12.53;;;11.43;;
3405;SDS011;10008;48.682;9.016;2024-03-23T04:07:50;12.20;;;11.20;;
3405;SDS011;10008;48.682;9.016;2024-03-23T04:10:15;12.90;;;11.80;;
3405;SDS011;10008;48.682;9.016;2024-03-23T04:12:43;13.30;;;12.13;;
3405;SDS011;10008;48.682;9.016;2024-03-23T04:15:09;13.37;;;12.30;;
3405;SDS011;10008;48.682;9.016;2024-03-23T04:17:35;14.10;;;13.00;;
3405;SDS011;10008;48.682;9.016;2024-03-23T04:20:01;13.17;;;12.07;;
3405;SDS011;10008;48.682;9.016;2024-03-23T04:22:28;13.50;;;12.40;;
3405;SDS011;10008;48.682;9.016;2024-03-23T04:24:54;12.73;;;11.73;;
3405;SDS011;10008;48.682;9.016;2024-03-23T04:27:21;13.37;;;12.27;;
3405;SDS011;10008;48.682;9.016;2024-03-23T04:29:47;13.70;;;12.50;;
3405;SDS011;10008;48.682;9.016;2024-03-23T04:32:14;14.43;;;13.20;;
3405;SDS011;10008;48.682;9.016;2024-03-23T04:34:40;13.57;;;12.47;;
3405;SDS011;10008;48.682;9.016;2024-03-23T04:37:05;14.17;;;12.97;;
3405;SDS011;10008;48.682;9.016;2024-03-23T04:39:31;13.53;;;12.37;;
3405;SDS011;10008;48.682;9.016;2024-03-23T04:41:57;12.80;;;11.80;;
3405;SDS011;10008;48.682;9.016;2024-03-23T04:44:23;13.80;;;12.70;;
3405;SDS011;10008;48.682;9.016;2024-03-23T04:46:48;14.20;;;13.00;;
3405;SDS011;10008;48.682;9.016;2024-03-23T04:49:14;14.07;;;12.77;;
3405;SDS011;10008;48.682;9.016;2024-03-23T04:51:40;15.57;;;14.37;;
3405;SDS011;10008;48.682;9.016;2024-03-23T04:54:11;19.03;;;17.30;;
3405;SDS011;10008;48.682;9.016;2024-03-23T04:56:37;21.77;;;19.70;;
3405;SDS011;10008;48.682;9.016;2024-03-23T04:59:03;23.50;;;21.10;;
3405;SDS011;10008;48.682;9.016;2024-03-23T05:01:30;23.67;;;21.47;;
3405;SDS011;10008;48.682;9.016;2024-03-23T05:03:56;23.57;;;21.37;;
3405;SDS011;10008;48.682;9.016;2024-03-23T05:06:22;24.73;;;22.23;;
3405;SDS011;10008;48.682;9.016;2024-03-23T05:08:48;24.60;;;22.30;;
3405;SDS011;10008;48.682;9.016;2024-03-23T05:11:14;24.00;;;21.60;;
3405;SDS011;10008;48.682;9.016;2024-03-23T05:13:41;24.33;;;21.93;;
3405;SDS011;10008;48.682;9.016;2024-03-23T05:16:07;24.73;;;22.33;;
3405;SDS011;10008;48.682;9.016;2024-03-23T05:18:33;25.13;;;22.63;;
3405;SDS011;10008;48.682;9.016;2024-03-23T05:21:00;26.10;;;23.70;;
3405;SDS011;10008;48.682;9.016;2024-03-23T05:23:26;31.10;;;27.90;;
3405;SDS011;10008;48.682;9.016;2024-03-23T05:25:53;32.10;;;28.73;;
3405;SDS011;10008;48.682;9.016;2024-03-23T05:28:19;32.03;;;28.73;;
3405;SDS011;10008;48.682;9.016;2024-03-23T05:30:52;32.13;;;28.87;;
3405;SDS011;10008;48.682;9.016;2024-03-23T05:33:21;31.80;;;28.30;;
3405;SDS011;10008;48.682;9.016;2024-03-23T05:35:54;31.20;;;27.80;;
3405;SDS011;10008;48.682;9.016;2024-03-23T05:38:25;30.07;;;26.10;;
3405;SDS011;10008;48.682;9.016;2024-03-23T05:40:54;30.67;;;26.97;;
3405;SDS011;10008;48.682;9.016;2024-03-23T05:43:23;29.67;;;26.57;;
3405;SDS011;10008;48.682;9.016;2024-03-23T05:45:53;32.80;;;27.70;;
3405;SDS011;10008;48.682;9.016;2024-03-23T05:48:22;31.30;;;27.27;;
3405;SDS011;10008;48.682;9.016;2024-03-23T05:50:49;30.57;;;26.00;;
3405;SDS011;10008;48.682;9.016;2024-03-23T05:53:15;29.33;;;26.13;;
3405;SDS011;10008;48.682;9.016;2024-03-23T05:55:41;29.80;;;26.47;;
3405;SDS011;10008;48.682;9.016;2024-03-23T05:58:07;30.37;;;25.57;;
3405;SDS011;10008;48.682;9.016;2024-03-23T06:00:33;29.67;;;25.77;;
3405;SDS011;10008;48.682;9.016;2024-03-23T06:02:59;28.20;;;24.50;;
3405;SDS011;10008;48.682;9.016;2024-03-23T06:05:24;26.73;;;23.93;;
3405;SDS011;10008;48.682;9.016;2024-03-23T06:07:50;25.40;;;22.63;;
3405;SDS011;10008;48.682;9.016;2024-03-23T06:10:16;22.90;;;20.67;;
3405;SDS011;10008;48.682;9.016;2024-03-23T06:12:42;22.37;;;20.27;;
3405;SDS011;10008;48.682;9.016;2024-03-23T06:15:08;21.50;;;19.40;;
3405;SDS011;10008;48.682;9.016;2024-03-23T06:17:38;20.40;;;18.20;;
3405;SDS011;10008;48.682;9.016;2024-03-23T06:20:05;18.70;;;16.90;;
3405;SDS011;10008;48.682;9.016;2024-03-23T06:22:33;19.43;;;17.53;;
3405;SDS011;10008;48.682;9.016;2024-03-23T06:24:59;20.23;;;18.13;;
3405;SDS011;10008;48.682;9.016;2024-03-23T06:27:25;17.83;;;16.13;;
3405;SDS011;10008;48.682;9.016;2024-03-23T06:29:51;18.90;;;17.10;;
3405;SDS011;10008;48.682;9.016;2024-03-23T06:32:17;18.53;;;16.73;;
3405;SDS011;10008;48.682;9.016;2024-03-23T06:34:43;17.43;;;15.93;;
3405;SDS011;10008;48.682;9.016;2024-03-23T06:37:09;16.87;;;15.37;;
3405;SDS011;10008;48.682;9.016;2024-03-23T06:39:38;16.03;;;14.63;;
3405;SDS011;10008;48.682;9.016;2024-03-23T06:42:04;15.40;;;14.03;;
3405;SDS011;10008;48.682;9.016;2024-03-23T06:44:31;15.27;;;13.90;;
3405;SDS011;10008;48.682;9.016;2024-03-23T06:46:57;14.53;;;13.33;;
3405;SDS011;10008;48.682;9.016;2024-03-23T06:49:23;14.40;;;13.20;;
3405;SDS011;10008;48.682;9.016;2024-03-23T06:51:49;15.10;;;13.80;;
3405;SDS011;10008;48.682;9.016;2024-03-23T06:54:16;14.27;;;13.17;;
3405;SDS011;10008;48.682;9.016;2024-03-23T06:56:43;14.40;;;13.20;;
3405;SDS011;10008;48.682;9.016;2024-03-23T06:59:09;13.40;;;12.30;;
3405;SDS011;10008;48.682;9.016;2024-03-23T07:01:35;13.77;;;12.67;;
3405;SDS011;10008;48.682;9.016;2024-03-23T07:04:01;13.33;;;11.97;;
3405;SDS011;10008;48.682;9.016;2024-03-23T07:06:27;12.13;;;11.23;;
3405;SDS011;10008;48.682;9.016;2024-03-23T07:08:53;11.60;;;10.80;;
3405;SDS011;10008;48.682;9.016;2024-03-23T07:11:19;12.37;;;11.47;;
3405;SDS011;10008;48.682;9.016;2024-03-23T07:13:46;11.77;;;10.97;;
3405;SDS011;10008;48.682;9.016;2024-03-23T07:16:14;11.53;;;10.73;;
3405;SDS011;10008;48.682;9.016;2024-03-23T07:18:41;11.47;;;10.57;;
3405;SDS011;10008;48.682;9.016;2024-03-23T07:21:07;11.50;;;10.70;;
3405;SDS011;10008;48.682;9.016;2024-03-23T07:23:33;11.00;;;10.17;;
3405;SDS011;10008;48.682;9.016;2024-03-23T07:25:59;11.23;;;10.43;;
3405;SDS011;10008;48.682;9.016;2024-03-23T07:28:27;11.63;;;10.83;;
3405;SDS011;10008;48.682;9.016;2024-03-23T07:33:36;11.27;;;10.47;;
3405;SDS011;10008;48.682;9.016;2024-03-23T07:36:03;11.80;;;11.00;;
3405;SDS011;10008;48.682;9.016;2024-03-23T07:38:31;11.20;;;10.40;;
3405;SDS011;10008;48.682;9.016;2024-03-23T07:41:10;12.10;;;11.20;;
3405;SDS011;10008;48.682;9.016;2024-03-23T07:43:39;11.10;;;10.30;;
3405;SDS011;10008;48.682;9.016;2024-03-23T07:46:05;11.10;;;10.30;;
3405;SDS011;10008;48.682;9.016;2024-03-23T07:48:32;11.37;;;10.57;;
3405;SDS011;10008;48.682;9.016;2024-03-23T07:51:07;10.93;;;10.23;;
3405;SDS011;10008;48.682;9.016;2024-03-23T07:53:33;11.33;;;10.53;;
3405;SDS011;10008;48.682;9.016;2024-03-23T07:56:05;18.70;;;16.80;;
3405;SDS011;10008;48.682;9.016;2024-03-23T07:58:38;12.30;;;11.40;;
3405;SDS011;10008;48.682;9.016;2024-03-23T08:01:10;12.70;;;11.80;;
3405;SDS011;10008;48.682;9.016;2024-03-23T08:03:40;11.57;;;10.77;;
3405;SDS011;10008;48.682;9.016;2024-03-23T08:06:10;11.80;;;10.90;;
3405;SDS011;10008;48.682;9.016;2024-03-23T08:08:41;10.80;;;10.10;;
3405;SDS011;10008;48.682;9.016;2024-03-23T08:11:08;11.00;;;10.30;;
3405;SDS011;10008;48.682;9.016;2024-03-23T08:13:34;11.20;;;10.40;;
3405;SDS011;10008;48.682;9.016;2024-03-23T08:16:01;11.10;;;10.30;;
3405;SDS011;10008;48.682;9.016;2024-03-23T08:18:28;11.27;;;10.47;;
3405;SDS011;10008;48.682;9.016;2024-03-23T08:23:30;11.13;;;10.33;;
3405;SDS011;10008;48.682;9.016;2024-03-23T08:26:01;10.53;;;9.77;;
3405;SDS011;10008;48.682;9.016;2024-03-23T08:28:28;10.83;;;10.03;;
3405;SDS011;10008;48.682;9.016;2024-03-23T08:30:54;10.77;;;9.93;;
3405;SDS011;10008;48.682;9.016;2024-03-23T08:33:21;10.80;;;10.00;;
3405;SDS011;10008;48.682;9.016;2024-03-23T08:38:22;10.77;;;9.77;;
3405;SDS011;10008;48.682;9.016;2024-03-23T08:40:55;10.73;;;10.03;;
3405;SDS011;10008;48.682;9.016;2024-03-23T08:43:25;10.80;;;10.00;;
3405;SDS011;10008;48.682;9.016;2024-03-23T08:45:51;10.97;;;10.07;;
3405;SDS011;10008;48.682;9.016;2024-03-23T08:48:17;10.67;;;9.73;;
3405;SDS011;10008;48.682;9.016;2024-03-23T08:50:46;11.83;;;10.60;;
3405;SDS011;10008;48.682;9.016;2024-03-23T08:53:12;11.30;;;10.40;;
3405;SDS011;10008;48.682;9.016;2024-03-23T08:55:38;11.53;;;10.53;;
3405;SDS011;10008;48.682;9.016;2024-03-23T08:58:04;10.90;;;10.10;;
3405;SDS011;10008;48.682;9.016;2024-03-23T09:00:33;10.47;;;9.67;;
3405;SDS011;10008;48.682;9.016;2024-03-23T09:02:59;11.63;;;10.43;;
3405;SDS011;10008;48.682;9.016;2024-03-23T09:05:26;12.20;;;11.00;;
3405;SDS011;10008;48.682;9.016;2024-03-23T09:07:53;12.50;;;11.40;;
3405;SDS011;10008;48.682;9.016;2024-03-23T09:10:19;14.80;;;12.40;;
3405;SDS011;10008;48.682;9.016;2024-03-23T09:12:45;13.63;;;12.30;;
3405;SDS011;10008;48.682;9.016;2024-03-23T09:15:10;13.93;;;12.53;;
3405;SDS011;10008;48.682;9.016;2024-03-23T09:17:36;12.80;;;11.63;;
3405;SDS011;10008;48.682;9.016;2024-03-23T09:20:02;13.10;;;11.77;;
3405;SDS011;10008;48.682;9.016;2024-03-23T09:22:29;11.67;;;10.67;;
3405;SDS011;10008;48.682;9.016;2024-03-23T09:24:55;13.03;;;11.73;;
3405;SDS011;10008;48.682;9.016;2024-03-23T09:27:20;12.33;;;11.17;;
3405;SDS011;10008;48.682;9.016;2024-03-23T09:29:46;13.57;;;11.77;;
3405;SDS011;10008;48.682;9.016;2024-03-23T09:32:12;14.17;;;11.53;;
3405;SDS011;10008;48.682;9.016;2024-03-23T09:34:38;13.43;;;11.20;;
3405;SDS011;10008;48.682;9.016;2024-03-23T09:37:03;15.50;;;12.60;;
3405;SDS011;10008;48.682;9.016;2024-03-23T09:39:29;13.03;;;11.93;;
3405;SDS011;10008;48.682;9.016;2024-03-23T09:41:58;12.73;;;11.53;;
3405;SDS011;10008;48.682;9.016;2024-03-23T09:44:24;12.80;;;11.63;;
3405;SDS011;10008;48.682;9.016;2024-03-23T09:46:51;16.37;;;11.73;;
3405;SDS011;10008;48.682;9.016;2024-03-23T09:49:17;16.33;;;11.80;;
3405;SDS011;10008;48.682;9.016;2024-03-23T09:51:44;12.93;;;11.33;;
3405;SDS011;10008;48.682;9.016;2024-03-23T09:54:09;12.73;;;11.47;;
3405;SDS011;10008;48.682;9.016;2024-03-23T09:56:35;13.07;;;11.57;;
3405;SDS011;10008;48.682;9.016;2024-03-23T09:59:01;11.10;;;10.07;;
3405;SDS011;10008;48.682;9.016;2024-03-23T10:01:31;11.87;;;10.77;;
3405;SDS011;10008;48.682;9.016;2024-03-23T10:03:57;12.70;;;11.40;;
3405;SDS011;10008;48.682;9.016;2024-03-23T10:06:22;11.40;;;10.27;;
3405;SDS011;10008;48.682;9.016;2024-03-23T10:08:51;13.67;;;10.90;;
3405;SDS011;10008;48.682;9.016;2024-03-23T10:11:20;13.00;;;10.73;;
3405;SDS011;10008;48.682;9.016;2024-03-23T10:13:46;12.30;;;11.07;;
3405;SDS011;10008;48.682;9.016;2024-03-23T10:16:12;12.03;;;10.40;;
3405;SDS011;10008;48.682;9.016;2024-03-23T10:18:47;12.17;;;11.00;;
3405;SDS011;10008;48.682;9.016;2024-03-23T10:21:14;13.40;;;12.00;;
3405;SDS011;10008;48.682;9.016;2024-03-23T10:23:41;17.23;;;11.50;;
3405;SDS011;10008;48.682;9.016;2024-03-23T10:26:17;13.60;;;11.30;;
3405;SDS011;10008;48.682;9.016;2024-03-23T10:28:56;15.80;;;11.97;;
3405;SDS011;10008;48.682;9.016;2024-03-23T10:31:26;12.80;;;11.50;;
3405;SDS011;10008;48.682;9.016;2024-03-23T10:33:57;16.13;;;11.47;;
3405;SDS011;10008;48.682;9.016;2024-03-23T10:36:25;13.00;;;11.60;;
3405;SDS011;10008;48.682;9.016;2024-03-23T10:38:51;15.30;;;12.03;;
3405;SDS011;10008;48.682;9.016;2024-03-23T10:41:19;13.27;;;11.87;;
3405;SDS011;10008;48.682;9.016;2024-03-23T10:43:45;14.20;;;11.77;;
3405;SDS011;10008;48.682;9.016;2024-03-23T10:46:12;14.20;;;11.53;;
3405;SDS011;10008;48.682;9.016;2024-03-23T10:48:38;12.73;;;11.73;;
3405;SDS011;10008;48.682;9.016;2024-03-23T10:51:05;17.37;;;15.73;;
3405;SDS011;10008;48.682;9.016;2024-03-23T10:53:33;18.40;;;16.60;;
3405;SDS011;10008;48.682;9.016;2024-03-23T10:55:59;18.10;;;16.40;;
3405;SDS011;10008;48.682;9.016;2024-03-23T10:58:38;19.20;;;17.30;;
3405;SDS011;10008;48.682;9.016;2024-03-23T11:01:06;20.23;;;16.10;;
3405;SDS011;10008;48.682;9.016;2024-03-23T11:03:36;17.67;;;15.50;;
3405;SDS011;10008;48.682;9.016;2024-03-23T11:06:05;16.30;;;14.70;;
3405;SDS011;10008;48.682;9.016;2024-03-23T11:08:39;15.57;;;14.00;;
3405;SDS011;10008;48.682;9.016;2024-03-23T11:13:38;16.30;;;13.90;;
3405;SDS011;10008;48.682;9.016;2024-03-23T11:16:17;14.37;;;13.17;;
3405;SDS011;10008;48.682;9.016;2024-03-23T11:21:59;16.77;;;13.40;;
3405;SDS011;10008;48.682;9.016;2024-03-23T11:24:26;15.60;;;14.00;;
3405;SDS011;10008;48.682;9.016;2024-03-23T11:26:52;14.60;;;13.30;;
3405;SDS011;10008;48.682;9.016;2024-03-23T11:29:17;14.87;;;13.00;;
3405;SDS011;10008;48.682;9.016;2024-03-23T11:31:47;13.47;;;12.07;;
3405;SDS011;10008;48.682;9.016;2024-03-23T11:34:22;13.30;;;11.90;;
3405;SDS011;10008;48.682;9.016;2024-03-23T11:36:48;12.50;;;11.40;;
3405;SDS011;10008;48.682;9.016;2024-03-23T11:39:18;11.80;;;10.80;;
3405;SDS011;10008;48.682;9.016;2024-03-23T11:41:55;10.83;;;9.90;;
3405;SDS011;10008;48.682;9.016;2024-03-23T11:44:22;11.67;;;10.50;;
3405;SDS011;10008;48.682;9.016;2024-03-23T11:46:50;13.43;;;12.10;;
3405;SDS011;10008;48.682;9.016;2024-03-23T11:49:20;11.33;;;10.30;;
3405;SDS011;10008;48.682;9.016;2024-03-23T11:51:47;11.50;;;10.00;;
3405;SDS011;10008;48.682;9.016;2024-03-23T11:54:13;10.80;;;9.77;;
3405;SDS011;10008;48.682;9.016;2024-03-23T11:56:39;10.10;;;9.20;;
3405;SDS011;10008;48.682;9.016;2024-03-23T11:59:06;11.50;;;8.77;;
3405;SDS011;10008;48.682;9.016;2024-03-23T12:01:32;10.80;;;8.83;;
3405;SDS011;10008;48.682;9.016;2024-03-23T12:03:58;9.90;;;8.73;;
3405;SDS011;10008;48.682;9.016;2024-03-23T12:06:24;9.33;;;8.43;;
3405;SDS011;10008;48.682;9.016;2024-03-23T12:08:50;9.57;;;8.10;;
3405;SDS011;10008;48.682;9.016;2024-03-23T12:11:16;9.40;;;8.40;;
3405;SDS011;10008;48.682;9.016;2024-03-23T12:13:43;10.07;;;8.23;;
3405;SDS011;10008;48.682;9.016;2024-03-23T12:16:12;10.67;;;7.90;;
3405;SDS011;10008;48.682;9.016;2024-03-23T12:18:42;8.70;;;7.80;;
3405;SDS011;10008;48.682;9.016;2024-03-23T12:21:09;11.60;;;9.03;;
3405;SDS011;10008;48.682;9.016;2024-03-23T12:23:35;9.50;;;8.50;;
3405;SDS011;10008;48.682;9.016;2024-03-23T12:26:01;14.77;;;9.20;;
3405;SDS011;10008;48.682;9.016;2024-03-23T12:28:27;11.53;;;9.43;;
3405;SDS011;10008;48.682;9.016;2024-03-23T12:30:53;13.33;;;9.20;;
3405;SDS011;10008;48.682;9.016;2024-03-23T12:33:19;13.70;;;11.40;;
3405;SDS011;10008;48.682;9.016;2024-03-23T12:35:46;12.17;;;10.97;;
3405;SDS011;10008;48.682;9.016;2024-03-23T12:38:12;12.47;;;11.00;;
3405;SDS011;10008;48.682;9.016;2024-03-23T12:40:38;13.03;;;11.33;;
3405;SDS011;10008;48.682;9.016;2024-03-23T12:43:04;14.60;;;10.90;;
3405;SDS011;10008;48.682;9.016;2024-03-23T12:45:29;12.83;;;11.53;;
3405;SDS011;10008;48.682;9.016;2024-03-23T12:47:55;13.07;;;11.50;;
3405;SDS011;10008;48.682;9.016;2024-03-23T12:50:21;13.73;;;12.33;;
3405;SDS011;10008;48.682;9.016;2024-03-23T12:52:47;14.43;;;11.30;;
3405;SDS011;10008;48.682;9.016;2024-03-23T12:55:12;13.43;;;11.30;;
3405;SDS011;10008;48.682;9.016;2024-03-23T12:57:38;12.70;;;11.30;;
3405;SDS011;10008;48.682;9.016;2024-03-23T13:00:06;13.07;;;11.10;;
3405;SDS011;10008;48.682;9.016;2024-03-23T13:02:34;12.70;;;10.90;;
3405;SDS011;10008;48.682;9.016;2024-03-23T13:05:00;12.77;;;11.20;;
3405;SDS011;10008;48.682;9.016;2024-03-23T13:07:26;11.70;;;10.60;;
3405;SDS011;10008;48.682;9.016;2024-03-23T13:09:52;11.30;;;9.80;;
3405;SDS011;10008;48.682;9.016;2024-03-23T13:12:18;9.83;;;8.93;;
3405;SDS011;10008;48.682;9.016;2024-03-23T13:14:45;10.60;;;9.67;;
3405;SDS011;10008;48.682;9.016;2024-03-23T13:17:11;9.60;;;8.80;;
3405;SDS011;10008;48.682;9.016;2024-03-23T13:19:37;10.97;;;9.20;;
3405;SDS011;10008;48.682;9.016;2024-03-23T13:22:03;10.47;;;9.47;;
3405;SDS011;10008;48.682;9.016;2024-03-23T13:24:30;9.90;;;9.10;;
3405;SDS011;10008;48.682;9.016;2024-03-23T13:26:56;10.70;;;9.70;;
3405;SDS011;10008;48.682;9.016;2024-03-23T13:29:22;10.10;;;9.20;;
3405;SDS011;10008;48.682;9.016;2024-03-23T13:31:49;9.73;;;8.93;;
3405;SDS011;10008;48.682;9.016;2024-03-23T13:34:16;9.27;;;8.47;;
3405;SDS011;10008;48.682;9.016;2024-03-23T13:36:42;9.67;;;8.90;;
3405;SDS011;10008;48.682;9.016;2024-03-23T13:39:08;9.77;;;8.97;;
3405;SDS011;10008;48.682;9.016;2024-03-23T13:41:44;10.33;;;9.43;;
3405;SDS011;10008;48.682;9.016;2024-03-23T13:44:10;10.43;;;9.53;;
3405;SDS011;10008;48.682;9.016;2024-03-23T13:46:37;10.37;;;9.47;;
3405;SDS011;10008;48.682;9.016;2024-03-23T13:51:53;11.03;;;10.13;;
3405;SDS011;10008;48.682;9.016;2024-03-23T13:54:19;10.40;;;9.47;;
3405;SDS011;10008;48.682;9.016;2024-03-23T13:56:48;10.17;;;9.37;;
3405;SDS011;10008;48.682;9.016;2024-03-23T13:59:14;10.80;;;9.80;;
3405;SDS011;10008;48.682;9.016;2024-03-23T14:01:40;10.77;;;9.60;;
3405;SDS011;10008;48.682;9.016;2024-03-23T14:04:05;11.50;;;10.50;;
3405;SDS011;10008;48.682;9.016;2024-03-23T14:06:31;11.73;;;10.60;;
3405;SDS011;10008;48.682;9.016;2024-03-23T14:08:57;11.60;;;10.50;;
3405;SDS011;10008;48.682;9.016;2024-03-23T14:11:23;11.50;;;10.50;;
3405;SDS011;10008;48.682;9.016;2024-03-23T14:13:51;11.50;;;10.30;;
3405;SDS011;10008;48.682;9.016;2024-03-23T14:16:17;11.03;;;9.90;;
3405;SDS011;10008;48.682;9.016;2024-03-23T14:18:42;10.97;;;9.90;;
3405;SDS011;10008;48.682;9.016;2024-03-23T14:21:08;10.17;;;9.27;;
3405;SDS011;10008;48.682;9.016;2024-03-23T14:23:35;10.67;;;9.20;;
3405;SDS011;10008;48.682;9.016;2024-03-23T14:26:01;11.30;;;10.10;;
3405;SDS011;10008;48.682;9.016;2024-03-23T14:28:27;11.20;;;10.30;;
3405;SDS011;10008;48.682;9.016;2024-03-23T14:30:55;11.20;;;10.00;;
3405;SDS011;10008;48.682;9.016;2024-03-23T14:33:21;11.03;;;10.03;;
3405;SDS011;10008;48.682;9.016;2024-03-23T14:35:53;10.43;;;9.37;;
3405;SDS011;10008;48.682;9.016;2024-03-23T14:38:20;10.80;;;9.67;;
3405;SDS011;10008;48.682;9.016;2024-03-23T14:40:46;10.47;;;9.57;;
3405;SDS011;10008;48.682;9.016;2024-03-23T14:43:12;10.10;;;9.23;;
3405;SDS011;10008;48.682;9.016;2024-03-23T14:48:35;10.67;;;9.77;;
3405;SDS011;10008;48.682;9.016;2024-03-23T14:51:01;10.50;;;9.53;;
3405;SDS011;10008;48.682;9.016;2024-03-23T14:53:33;10.60;;;9.70;;
3405;SDS011;10008;48.682;9.016;2024-03-23T14:56:06;10.80;;;9.80;;
3405;SDS011;10008;48.682;9.016;2024-03-23T14:58:32;12.20;;;11.00;;
3405;SDS011;10008;48.682;9.016;2024-03-23T15:01:03;12.97;;;11.77;;
3405;SDS011;10008;48.682;9.016;2024-03-23T15:03:30;13.10;;;11.77;;
3405;SDS011;10008;48.682;9.016;2024-03-23T15:05:56;14.43;;;13.03;;
3405;SDS011;10008;48.682;9.016;2024-03-23T15:08:22;13.90;;;12.80;;
3405;SDS011;10008;48.682;9.016;2024-03-23T15:10:48;13.87;;;12.57;;
3405;SDS011;10008;48.682;9.016;2024-03-23T15:13:14;13.80;;;12.60;;
3405;SDS011;10008;48.682;9.016;2024-03-23T15:15:41;13.20;;;12.10;;
3405;SDS011;10008;48.682;9.016;2024-03-23T15:18:12;13.63;;;12.53;;
3405;SDS011;10008;48.682;9.016;2024-03-23T15:20:38;13.37;;;12.27;;
3405;SDS011;10008;48.682;9.016;2024-03-23T15:23:07;13.50;;;12.20;;
3405;SDS011;10008;48.682;9.016;2024-03-23T15:25:33;12.50;;;11.50;;
3405;SDS011;10008;48.682;9.016;2024-03-23T15:27:59;12.40;;;11.40;;
3405;SDS011;10008;48.682;9.016;2024-03-23T15:30:25;11.93;;;10.97;;
3405;SDS011;10008;48.682;9.016;2024-03-23T15:32:51;12.10;;;11.00;;
3405;SDS011;10008;48.682;9.016;2024-03-23T15:35:17;12.23;;;11.33;;
3405;SDS011;10008;48.682;9.016;2024-03-23T15:37:46;12.60;;;11.40;;
3405;SDS011;10008;48.682;9.016;2024-03-23T15:40:12;12.63;;;11.43;;
3405;SDS011;10008;48.682;9.016;2024-03-23T15:42:38;12.00;;;11.03;;
3405;SDS011;10008;48.682;9.016;2024-03-23T15:45:06;11.97;;;10.97;;